createdAt,value
2018-10-06T00:01:56.035Z,100288.28
2018-10-06T00:04:24.971Z,100283.98
2018-10-06T00:06:53.805Z,100285.42
2018-10-06T00:09:22.644Z,100285.66
2018-10-06T00:11:51.970Z,100283.83
2018-10-06T00:14:20.883Z,100290.31
2018-10-06T00:16:49.733Z,100290.17
2018-10-06T00:19:18.619Z,100301.45
2018-10-06T00:21:47.432Z,100294.61
2018-10-06T00:24:16.280Z,100294.97
2018-10-06T00:26:45.151Z,100301.22
2018-10-06T00:29:14.021Z,100297.70
2018-10-06T00:31:46.729Z,100297.06
2018-10-06T00:34:18.656Z,100297.56
2018-10-06T00:36:47.522Z,100289.75
2018-10-06T00:39:16.309Z,100282.13
2018-10-06T00:41:45.129Z,100276.58
2018-10-06T00:44:13.982Z,100272.88
2018-10-06T00:46:42.763Z,100267.34
2018-10-06T00:49:11.599Z,100264.34
2018-10-06T00:51:40.451Z,100267.44
2018-10-06T00:54:09.290Z,100269.23
2018-10-06T00:56:38.101Z,100267.30
2018-10-06T00:59:07.350Z,100267.03
2018-10-06T01:01:36.258Z,100253.28
2018-10-06T01:04:05.102Z,100261.41
2018-10-06T01:06:35.438Z,100260.41
2018-10-06T01:09:06.055Z,100258.04
2018-10-06T01:11:34.988Z,100247.25
2018-10-06T01:14:03.819Z,100243.17
2018-10-06T01:16:32.729Z,100240.67
2018-10-06T01:19:01.561Z,100242.84
2018-10-06T01:21:30.518Z,100243.70
2018-10-06T01:23:59.309Z,100231.00
2018-10-06T01:26:28.354Z,100236.77
2018-10-06T01:28:57.279Z,100233.05
2018-10-06T01:31:26.240Z,100229.81
2018-10-06T01:33:55.069Z,100226.70
2018-10-06T01:36:24.171Z,100222.80
2018-10-06T01:38:53.002Z,100220.52
2018-10-06T01:41:22.193Z,100222.91
2018-10-06T01:43:51.134Z,100223.38
2018-10-06T01:46:19.990Z,100220.96
2018-10-06T01:48:48.873Z,100218.56
2018-10-06T01:51:17.684Z,100210.59
2018-10-06T01:53:46.583Z,100211.05
2018-10-06T01:56:15.408Z,100205.75
2018-10-06T01:58:44.326Z,100205.35
2018-10-06T02:01:13.154Z,100198.27
2018-10-06T02:03:41.981Z,100202.70
2018-10-06T02:06:11.161Z,100194.81
2018-10-06T02:08:40.120Z,100187.22
2018-10-06T02:11:08.888Z,100186.96
2018-10-06T02:13:37.741Z,100186.25
2018-10-06T02:16:06.655Z,100182.41
2018-10-06T02:18:35.463Z,100174.98
2018-10-06T02:21:04.435Z,100173.67
2018-10-06T02:23:33.303Z,100166.80
2018-10-06T02:26:02.166Z,100164.39
2018-10-06T02:28:31.270Z,100159.91
2018-10-06T02:31:00.072Z,100160.91
2018-10-06T02:33:29.551Z,100157.67
2018-10-06T02:35:58.480Z,100159.34
2018-10-06T02:38:27.432Z,100158.02
2018-10-06T02:40:56.306Z,100156.18
2018-10-06T02:43:25.123Z,100162.80
2018-10-06T02:45:53.964Z,100158.78
2018-10-06T02:48:22.840Z,100157.81
2018-10-06T02:50:51.824Z,100156.94
2018-10-06T02:53:20.775Z,100151.78
2018-10-06T02:55:49.752Z,100142.14
2018-10-06T02:58:18.643Z,100140.82
2018-10-06T03:00:48.109Z,100136.67
2018-10-06T03:03:17.024Z,100126.39
2018-10-06T03:05:45.837Z,100127.83
2018-10-06T03:08:14.714Z,100128.27
2018-10-06T03:10:43.649Z,100121.66
2018-10-06T03:13:12.681Z,100118.66
2018-10-06T03:15:41.652Z,100115.20
2018-10-06T03:18:10.543Z,100120.37
2018-10-06T03:20:39.422Z,100124.54
2018-10-06T03:23:08.262Z,100120.59
2018-10-06T03:25:37.161Z,100117.11
2018-10-06T03:28:05.972Z,100118.09
2018-10-06T03:30:34.810Z,100111.84
2018-10-06T03:33:03.561Z,100110.52
2018-10-06T03:35:32.318Z,100103.39
2018-10-06T03:38:01.268Z,100113.55
2018-10-06T03:40:30.178Z,100099.29
2018-10-06T03:42:58.979Z,100095.05
2018-10-06T03:45:27.769Z,100092.80
2018-10-06T03:47:56.544Z,100089.68
2018-10-06T03:50:25.345Z,100083.81
2018-10-06T03:52:54.608Z,100084.94
2018-10-06T03:55:23.612Z,100081.91
2018-10-06T03:57:52.499Z,100086.52
2018-10-06T04:00:21.340Z,100083.27
2018-10-06T04:02:50.265Z,100083.77
2018-10-06T04:05:19.062Z,100085.47
2018-10-06T04:07:47.879Z,100080.18
2018-10-06T04:10:16.736Z,100081.64
2018-10-06T04:12:45.569Z,100083.33
2018-10-06T04:15:14.530Z,100076.00
2018-10-06T04:17:43.369Z,100082.62
2018-10-06T04:20:12.193Z,100071.12
2018-10-06T04:22:41.238Z,100076.57
2018-10-06T04:25:10.035Z,100073.08
2018-10-06T04:27:38.877Z,100076.23
2018-10-06T04:30:08.883Z,100073.34
2018-10-06T04:32:37.743Z,100077.69
2018-10-06T04:35:06.682Z,100072.39
2018-10-06T04:37:35.529Z,100078.84
2018-10-06T04:40:04.420Z,100072.57
2018-10-06T04:42:33.758Z,100066.94
2018-10-06T04:45:02.721Z,100064.91
2018-10-06T04:47:31.503Z,100066.84
2018-10-06T04:50:00.412Z,100058.63
2018-10-06T04:52:29.235Z,100055.78
2018-10-06T04:54:58.059Z,100058.86
2018-10-06T04:57:26.979Z,100054.76
2018-10-06T04:59:56.659Z,100049.06
2018-10-06T05:02:25.485Z,100057.23
2018-10-06T05:04:54.348Z,100058.19
2018-10-06T05:07:23.225Z,100057.14
2018-10-06T05:09:52.031Z,100051.33
2018-10-06T05:12:20.912Z,100056.94
2018-10-06T05:14:49.741Z,100063.59
2018-10-06T05:17:18.547Z,100056.36
2018-10-06T05:19:47.420Z,100059.44
2018-10-06T05:22:16.274Z,100061.11
2018-10-06T05:24:45.155Z,100063.14
2018-10-06T05:27:13.999Z,100060.49
2018-10-06T05:29:44.747Z,100067.69
2018-10-06T05:32:13.489Z,100070.91
2018-10-06T05:34:42.364Z,100068.09
2018-10-06T05:37:11.583Z,100069.27
2018-10-06T05:39:40.421Z,100068.79
2018-10-06T05:42:09.296Z,100063.79
2018-10-06T05:44:38.462Z,100056.55
2018-10-06T05:47:07.451Z,100054.95
2018-10-06T05:49:36.606Z,100053.77
2018-10-06T05:52:06.198Z,100052.30
2018-10-06T05:54:35.012Z,100051.14
2018-10-06T05:57:03.891Z,100043.65
2018-10-06T05:59:32.732Z,100047.16
2018-10-06T06:02:01.571Z,100041.05
2018-10-06T06:04:30.384Z,100045.87
2018-10-06T06:06:59.617Z,100049.42
2018-10-06T06:09:28.398Z,100044.48
2018-10-06T06:11:57.252Z,100051.27
2018-10-06T06:14:26.050Z,100047.63
2018-10-06T06:16:55.070Z,100053.16
2018-10-06T06:19:23.900Z,100055.16
2018-10-06T06:21:52.876Z,100053.76
2018-10-06T06:24:21.782Z,100055.97
2018-10-06T06:26:50.746Z,100042.50
2018-10-06T06:29:19.615Z,100049.83
2018-10-06T06:31:48.860Z,100042.39
2018-10-06T06:34:17.882Z,100039.48
2018-10-06T06:36:46.801Z,100034.81
2018-10-06T06:39:15.797Z,100031.97
2018-10-06T06:41:44.909Z,100026.65
2018-10-06T06:44:13.939Z,100022.49
2018-10-06T06:46:43.428Z,100026.05
2018-10-06T06:49:12.303Z,100020.22
2018-10-06T06:51:41.199Z,100020.86
2018-10-06T06:54:10.016Z,100023.29
2018-10-06T06:56:39.007Z,100021.16
2018-10-06T06:59:07.962Z,100024.32
2018-10-06T07:01:36.896Z,100015.20
2018-10-06T07:04:12.367Z,100017.11
2018-10-06T07:06:49.667Z,100011.98
2018-10-06T07:09:18.721Z,100008.38
2018-10-06T07:11:47.633Z,100011.67
2018-10-06T07:14:16.711Z,100010.13
2018-10-06T07:16:45.689Z,100002.00
2018-10-06T07:19:14.551Z,100004.13
2018-10-06T07:21:43.509Z,100003.19
2018-10-06T07:24:15.522Z,99998.85
2018-10-06T07:26:44.380Z,100008.03
2018-10-06T07:29:13.315Z,100004.91
2018-10-06T07:31:42.155Z,100003.25
2018-10-06T07:34:10.976Z,100007.74
2018-10-06T07:36:40.003Z,99997.31
2018-10-06T07:39:08.963Z,100000.02
2018-10-06T07:41:37.972Z,99989.59
2018-10-06T07:44:06.767Z,99992.83
2018-10-06T07:46:35.638Z,99984.30
2018-10-06T07:49:04.489Z,99986.89
2018-10-06T07:51:33.397Z,99984.16
2018-10-06T07:54:02.254Z,99987.19
2018-10-06T07:56:31.210Z,99989.18
2018-10-06T07:59:00.066Z,99986.19
2018-10-06T08:01:31.353Z,99989.42
2018-10-06T08:04:01.142Z,99980.37
2018-10-06T08:06:30.061Z,99978.65
2018-10-06T08:08:58.799Z,99975.39
2018-10-06T08:11:27.705Z,99976.24
2018-10-06T08:13:56.517Z,99971.62
2018-10-06T08:16:25.714Z,99960.83
2018-10-06T08:18:54.580Z,99960.16
2018-10-06T08:21:23.435Z,99965.29
2018-10-06T08:23:54.866Z,99966.98
2018-10-06T08:26:25.077Z,99967.44
2018-10-06T08:28:54.484Z,99966.22
2018-10-06T08:31:25.708Z,99961.41
2018-10-06T08:33:56.572Z,99962.85
2018-10-06T08:36:26.009Z,99965.02
2018-10-06T08:38:56.566Z,99961.72
2018-10-06T08:41:27.399Z,99958.14
2018-10-06T08:43:57.604Z,99958.70
2018-10-06T08:46:28.080Z,99963.28
2018-10-06T08:48:58.886Z,99963.08
2018-10-06T08:51:30.502Z,99955.14
2018-10-06T08:53:59.417Z,99959.91
2018-10-06T08:56:28.272Z,99954.41
2018-10-06T08:58:57.289Z,99961.06
2018-10-06T09:01:26.187Z,99955.41
2018-10-06T09:03:59.387Z,99952.66
2018-10-06T09:06:30.847Z,99951.75
2018-10-06T09:09:01.152Z,99952.11
2018-10-06T09:11:37.512Z,99943.06
2018-10-06T09:14:06.459Z,99939.53
2018-10-06T09:16:35.415Z,99940.08
2018-10-06T09:19:04.847Z,99946.39
2018-10-06T09:21:34.902Z,99944.41
2018-10-06T09:24:07.922Z,99949.46
2018-10-06T09:26:42.715Z,99936.11
2018-10-06T09:29:12.555Z,99939.16
2018-10-06T09:31:41.924Z,99930.43
2018-10-06T09:34:12.769Z,99927.89
2018-10-06T09:36:41.842Z,99926.89
2018-10-06T09:39:11.759Z,99921.53
2018-10-06T09:41:40.635Z,99921.05
2018-10-06T09:44:10.592Z,99910.27
2018-10-06T09:46:40.117Z,99908.06
2018-10-06T09:51:56.798Z,99899.22
2018-10-06T09:54:26.046Z,99902.53
2018-10-06T09:56:55.438Z,99901.72
2018-10-06T09:59:28.067Z,99896.95
2018-10-06T10:02:04.045Z,99894.33
2018-10-06T10:04:34.781Z,99881.38
2018-10-06T10:07:05.071Z,99880.19
2018-10-06T10:09:35.485Z,99881.61
2018-10-06T10:12:05.479Z,99880.77
2018-10-06T10:14:35.232Z,99873.28
2018-10-06T10:17:05.815Z,99873.09
2018-10-06T10:19:35.218Z,99872.59
2018-10-06T10:22:04.485Z,99871.70
2018-10-06T10:24:33.987Z,99868.73
2018-10-06T10:27:02.923Z,99863.61
2018-10-06T10:29:35.859Z,99860.54
2018-10-06T10:32:04.815Z,99851.52
2018-10-06T10:34:35.613Z,99839.72
2018-10-06T10:37:04.883Z,99840.28
2018-10-06T10:39:34.394Z,99838.03
2018-10-06T10:42:03.887Z,99832.72
2018-10-06T10:44:32.790Z,99829.69
2018-10-06T10:47:02.255Z,99823.26
2018-10-06T10:49:31.629Z,99810.13
2018-10-06T10:52:00.978Z,99805.45
2018-10-06T10:54:31.044Z,99799.86
2018-10-06T10:57:00.023Z,99797.88
2018-10-06T10:59:29.186Z,99793.84
2018-10-06T11:01:57.882Z,99786.58
2018-10-06T11:04:27.219Z,99781.69
2018-10-06T11:06:56.606Z,99782.48
2018-10-06T11:09:26.024Z,99775.69
2018-10-06T11:11:55.136Z,99776.47
2018-10-06T11:14:24.424Z,99762.12
2018-10-06T11:16:53.208Z,99762.33
2018-10-06T11:19:21.972Z,99757.25
2018-10-06T11:21:50.864Z,99758.77
2018-10-06T11:24:20.018Z,99755.32
2018-10-06T11:26:50.357Z,99747.84
2018-10-06T11:29:20.287Z,99741.84
2018-10-06T11:31:49.151Z,99736.63
2018-10-06T11:34:18.017Z,99734.04
2018-10-06T11:36:46.865Z,99722.16
2018-10-06T11:39:15.700Z,99730.30
2018-10-06T11:41:44.547Z,99723.02
2018-10-06T11:44:13.342Z,99726.05
2018-10-06T11:46:42.247Z,99733.34
2018-10-06T11:49:11.147Z,99721.23
2018-10-06T11:51:40.181Z,99719.44
2018-10-06T11:54:08.985Z,99713.41
2018-10-06T11:56:37.842Z,99711.84
2018-10-06T11:59:08.709Z,99709.67
2018-10-06T12:01:39.065Z,99704.33
2018-10-06T12:04:08.431Z,99706.28
2018-10-06T12:06:37.177Z,99710.02
2018-10-06T12:09:08.983Z,99701.78
2018-10-06T12:11:38.282Z,99697.66
2018-10-06T12:14:07.758Z,99691.64
2018-10-06T12:16:39.678Z,99685.17
2018-10-06T12:19:08.475Z,99683.05
2018-10-06T12:21:37.628Z,99683.70
2018-10-06T12:24:07.805Z,99677.50
2018-10-06T12:26:36.691Z,99667.94
2018-10-06T12:29:06.803Z,99671.74
2018-10-06T12:31:37.832Z,99666.05
2018-10-06T12:34:06.726Z,99666.94
2018-10-06T12:36:35.507Z,99660.50
2018-10-06T12:39:05.529Z,99646.62
2018-10-06T12:41:34.319Z,99652.19
2018-10-06T12:44:03.336Z,99649.81
2018-10-06T12:46:37.791Z,99639.19
2018-10-06T12:49:07.721Z,99635.80
2018-10-06T12:51:36.525Z,99633.88
2018-10-06T12:54:05.133Z,99636.73
2018-10-06T12:56:37.099Z,99629.80
2018-10-06T12:59:08.194Z,99638.20
2018-10-06T13:04:27.416Z,99636.72
2018-10-06T13:06:56.057Z,99628.45
2018-10-06T13:09:28.775Z,99622.09
2018-10-06T13:11:57.462Z,99614.98
2018-10-06T13:14:26.796Z,99616.73
2018-10-06T13:16:55.415Z,99620.42
2018-10-06T13:19:25.253Z,99615.80
2018-10-06T13:21:55.504Z,99617.00
2018-10-06T13:24:24.386Z,99608.01
2018-10-06T13:26:53.423Z,99608.52
2018-10-06T13:29:22.230Z,99616.30
2018-10-06T13:31:51.486Z,99608.19
2018-10-06T13:34:20.312Z,99608.54
2018-10-06T13:36:49.834Z,99600.31
2018-10-06T13:39:19.737Z,99602.39
2018-10-06T13:41:48.695Z,99594.47
2018-10-06T13:44:17.979Z,99588.81
2018-10-06T13:46:47.946Z,99591.16
2018-10-06T13:49:18.084Z,99591.44
2018-10-06T13:51:47.710Z,99590.19
2018-10-06T13:54:17.726Z,99590.08
2018-10-06T13:56:47.019Z,99582.77
2018-10-06T13:59:16.546Z,99585.69
2018-10-06T14:01:46.539Z,99577.20
2018-10-06T14:04:16.461Z,99578.96
2018-10-06T14:06:45.860Z,99579.55
2018-10-06T14:09:15.210Z,99578.66
2018-10-06T14:11:45.067Z,99582.72
2018-10-06T14:14:15.548Z,99580.08
2018-10-06T14:16:45.115Z,99575.23
2018-10-06T14:19:14.311Z,99571.85
2018-10-06T14:21:43.815Z,99569.17
2018-10-06T14:24:17.789Z,99568.11
2018-10-06T14:26:47.240Z,99569.80
2018-10-06T14:29:18.530Z,99568.08
2018-10-06T14:31:47.475Z,99567.01
2018-10-06T14:34:16.506Z,99561.70
2018-10-06T14:36:45.619Z,99558.16
2018-10-06T14:39:14.853Z,99556.30
2018-10-06T14:41:46.034Z,99553.37
2018-10-06T14:44:18.551Z,99556.80
2018-10-06T14:46:47.646Z,99556.52
2018-10-06T14:49:16.394Z,99547.86
2018-10-06T14:51:50.784Z,99540.11
2018-10-06T14:54:19.549Z,99540.64
2018-10-06T14:56:49.376Z,99540.95
2018-10-06T14:59:18.322Z,99535.36
2018-10-06T15:01:49.044Z,99538.22
2018-10-06T15:04:18.047Z,99539.19
2018-10-06T15:06:47.500Z,99536.33
2018-10-06T15:09:16.379Z,99531.77
2018-10-06T15:11:45.654Z,99532.81
2018-10-06T15:14:14.620Z,99534.21
2018-10-06T15:16:43.835Z,99528.00
2018-10-06T15:19:13.105Z,99532.60
2018-10-06T15:21:42.020Z,99535.47
2018-10-06T15:24:11.207Z,99532.98
2018-10-06T15:26:40.323Z,99536.37
2018-10-06T15:29:09.411Z,99532.02
2018-10-06T15:31:38.386Z,99525.54
2018-10-06T15:34:07.364Z,99532.98
2018-10-06T15:36:36.285Z,99524.38
2018-10-06T15:39:07.100Z,99526.72
2018-10-06T15:41:38.068Z,99520.59
2018-10-06T15:44:08.122Z,99524.62
2018-10-06T15:46:39.863Z,99518.55
2018-10-06T15:49:09.770Z,99526.16
2018-10-06T15:51:47.473Z,99518.59
2018-10-06T15:54:19.846Z,99524.94
2018-10-06T15:56:51.472Z,99527.27
2018-10-06T15:59:24.044Z,99527.97
2018-10-06T16:01:52.861Z,99535.61
2018-10-06T16:04:23.933Z,99528.53
2018-10-06T16:06:53.670Z,99525.53
2018-10-06T16:09:23.475Z,99530.64
2018-10-06T16:11:55.567Z,99528.21
2018-10-06T16:14:25.958Z,99528.97
2018-10-06T16:16:59.158Z,99529.22
2018-10-06T16:19:29.477Z,99530.11
2018-10-06T16:22:01.604Z,99527.40
2018-10-06T16:24:35.637Z,99533.46
2018-10-06T16:27:05.082Z,99534.25
2018-10-06T16:29:34.457Z,99539.14
2018-10-06T16:32:05.792Z,99530.09
2018-10-06T16:34:35.503Z,99531.58
2018-10-06T16:37:12.860Z,99534.53
2018-10-06T16:39:42.034Z,99529.01
2018-10-06T16:42:11.293Z,99533.82
2018-10-06T16:44:40.700Z,99540.11
2018-10-06T16:47:10.342Z,99543.58
2018-10-06T16:49:39.235Z,99538.70
2018-10-06T16:54:58.585Z,99543.30
2018-10-06T16:57:27.499Z,99546.19
2018-10-06T16:59:56.507Z,99552.13
2018-10-06T17:02:25.371Z,99546.94
2018-10-06T17:04:54.355Z,99545.92
2018-10-06T17:07:23.376Z,99556.82
2018-10-06T17:09:53.038Z,99554.85
2018-10-06T17:12:23.640Z,99553.72
2018-10-06T17:14:53.245Z,99556.91
2018-10-06T17:17:23.401Z,99562.36
2018-10-06T17:19:52.368Z,99559.23
2018-10-06T17:22:21.700Z,99555.06
2018-10-06T17:24:51.025Z,99556.55
2018-10-06T17:27:19.892Z,99555.83
2018-10-06T17:29:49.031Z,99555.20
2018-10-06T17:32:17.963Z,99559.63
2018-10-06T17:34:50.271Z,99564.72
2018-10-06T17:37:20.184Z,99562.88
2018-10-06T17:39:49.486Z,99561.09
2018-10-06T17:42:18.967Z,99570.34
2018-10-06T17:44:48.383Z,99558.04
2018-10-06T17:47:18.037Z,99560.94
2018-10-06T17:49:50.068Z,99558.05
2018-10-06T17:52:19.207Z,99556.01
2018-10-06T17:54:50.291Z,99553.66
2018-10-06T17:57:19.193Z,99564.39
2018-10-06T17:59:48.006Z,99557.30
2018-10-06T18:02:16.910Z,99558.09
2018-10-06T18:04:45.938Z,99557.01
2018-10-06T18:07:14.763Z,99558.41
2018-10-06T18:09:43.752Z,99567.23
2018-10-06T18:12:12.854Z,99563.91
2018-10-06T18:14:44.548Z,99561.63
2018-10-06T18:17:13.642Z,99565.23
2018-10-06T18:19:43.267Z,99565.56
2018-10-06T18:22:12.339Z,99565.55
2018-10-06T18:24:41.498Z,99565.41
2018-10-06T18:27:11.071Z,99568.52
2018-10-06T18:29:40.168Z,99574.57
2018-10-06T18:32:09.083Z,99572.55
2018-10-06T18:34:38.408Z,99572.32
2018-10-06T18:37:07.267Z,99567.38
2018-10-06T18:39:36.406Z,99572.96
2018-10-06T18:42:14.167Z,99577.91
2018-10-06T18:44:48.119Z,99573.16
2018-10-06T18:47:19.264Z,99575.16
2018-10-06T18:50:05.495Z,99570.95
2018-10-06T18:58:15.247Z,99570.03
2018-10-06T19:00:45.078Z,99576.75
2018-10-06T19:03:19.928Z,99584.80
2018-10-06T19:05:50.736Z,99581.84
2018-10-06T19:08:20.289Z,99581.19
2018-10-06T19:10:57.714Z,99574.48
2018-10-06T19:13:27.888Z,99584.98
2018-10-06T19:15:56.745Z,99579.33
2018-10-06T19:18:26.893Z,99587.47
2018-10-06T19:20:56.404Z,99588.87
2018-10-06T19:23:26.148Z,99584.58
2018-10-06T19:26:15.307Z,99588.31
2018-10-06T19:28:45.622Z,99591.63
2018-10-06T19:31:15.023Z,99590.70
2018-10-06T19:33:45.129Z,99590.88
2018-10-06T19:36:14.740Z,99589.08
2018-10-06T19:38:45.608Z,99590.72
2018-10-06T19:41:14.673Z,99592.64
2018-10-06T19:43:43.507Z,99604.84
2018-10-06T19:46:12.436Z,99595.20
2018-10-06T19:48:41.436Z,99605.23
2018-10-06T19:51:10.250Z,99603.27
2018-10-06T19:53:39.344Z,99602.17
2018-10-06T19:56:09.976Z,99604.29
2018-10-06T19:58:39.200Z,99606.59
2018-10-06T20:01:08.058Z,99603.32
2018-10-06T20:03:36.886Z,99608.87
2018-10-06T20:06:05.744Z,99611.72
2018-10-06T20:08:42.266Z,99612.40
2018-10-06T20:17:03.210Z,99611.84
2018-10-06T20:19:43.427Z,99610.72
2018-10-06T20:22:16.862Z,99617.54
2018-10-06T20:27:58.708Z,99613.23
2018-10-06T20:30:51.625Z,99613.83
2018-10-06T20:33:48.715Z,99618.00
2018-10-06T20:36:35.030Z,99615.72
2018-10-06T20:39:21.298Z,99614.80
2018-10-06T20:42:18.612Z,99616.88
2018-10-06T20:45:07.518Z,99618.47
2018-10-06T20:47:42.504Z,99617.04
2018-10-06T20:50:14.073Z,99618.69
2018-10-06T20:52:43.041Z,99620.30
2018-10-06T20:55:12.818Z,99619.23
2018-10-06T20:57:41.665Z,99614.13
2018-10-06T21:00:12.404Z,99613.41
2018-10-06T21:02:43.181Z,99606.45
2018-10-06T21:05:15.224Z,99611.66
2018-10-06T21:07:47.680Z,99620.81
2018-10-06T21:10:16.601Z,99617.77
2018-10-06T21:12:45.504Z,99621.13
2018-10-06T21:15:16.251Z,99621.09
2018-10-06T21:17:45.313Z,99616.08
2018-10-06T21:20:14.807Z,99621.23
2018-10-06T21:22:44.339Z,99628.23
2018-10-06T21:25:17.638Z,99624.31
2018-10-06T21:27:48.675Z,99628.92
2018-10-06T21:30:19.103Z,99626.67
2018-10-06T21:32:48.359Z,99630.53
2018-10-06T21:35:18.060Z,99633.30
2018-10-06T21:37:47.979Z,99628.69
2018-10-06T21:40:18.959Z,99626.70
2018-10-06T21:42:47.814Z,99629.05
2018-10-06T21:45:16.648Z,99634.05
2018-10-06T21:47:45.427Z,99632.06
2018-10-06T21:50:14.208Z,99626.43
2018-10-06T21:52:43.046Z,99626.62
2018-10-06T21:55:11.881Z,99625.65
2018-10-06T21:57:40.603Z,99626.87
2018-10-06T22:00:09.540Z,99623.09
2018-10-06T22:02:38.382Z,99619.27
2018-10-06T22:05:07.795Z,99616.11
2018-10-06T22:07:36.950Z,99620.61
2018-10-06T22:10:08.847Z,99623.30
2018-10-06T22:12:38.039Z,99622.04
2018-10-06T22:15:08.163Z,99621.75
2018-10-06T22:17:37.087Z,99620.79
2018-10-06T22:20:09.413Z,99622.50
2018-10-06T22:22:38.391Z,99624.56
2018-10-06T22:25:07.831Z,99622.59
2018-10-06T22:27:42.428Z,99618.94
2018-10-06T22:30:12.728Z,99618.30
2018-10-06T22:32:41.946Z,99615.99
2018-10-06T22:35:11.043Z,99623.36
2018-10-06T22:37:40.227Z,99622.22
2018-10-06T22:40:09.541Z,99619.41
2018-10-06T22:42:39.471Z,99621.07
2018-10-06T22:45:09.429Z,99611.41
2018-10-06T22:47:41.543Z,99621.11
2018-10-06T22:50:10.572Z,99617.16
2018-10-06T22:52:39.902Z,99618.36
2018-10-06T22:55:09.031Z,99614.36
2018-10-06T22:57:39.555Z,99610.23
2018-10-06T23:00:08.417Z,99617.21
2018-10-06T23:02:38.571Z,99613.07
2018-10-06T23:05:07.392Z,99609.25
2018-10-06T23:07:37.597Z,99610.23
2018-10-06T23:10:07.038Z,99602.76
2018-10-06T23:12:35.854Z,99606.94
2018-10-06T23:15:04.763Z,99612.94
2018-10-06T23:17:33.675Z,99607.63
2018-10-06T23:20:02.648Z,99602.66
2018-10-06T23:22:32.533Z,99610.96
2018-10-06T23:25:02.355Z,99604.16
2018-10-06T23:27:33.328Z,99607.83
2018-10-06T23:30:02.261Z,99607.16
2018-10-06T23:32:31.169Z,99600.34
2018-10-06T23:35:01.011Z,99600.67
2018-10-06T23:37:30.101Z,99607.99
2018-10-06T23:40:00.834Z,99597.66
2018-10-06T23:42:29.705Z,99597.00
2018-10-06T23:44:58.580Z,99593.34
2018-10-06T23:47:27.382Z,99601.66
2018-10-06T23:49:56.418Z,99596.16
2018-10-06T23:52:25.268Z,99594.98
2018-10-06T23:54:54.158Z,99596.63
2018-10-06T23:57:23.038Z,99593.97
2018-10-06T23:59:51.836Z,99595.63
